Merna, Nebraska
Current Conditions -  °F | °C
As of 12:53 AM on Wednesday 26 Nov 2014 (Local Time) from KBBW Reporting Station
Few Clouds Few Clouds  
Wind Chill: 26°   Ceiling: Unl
Heat Index: 37°   Visibility: 10mi
Dew Point: 25°   Wind: 22mph
Humidity: 62%   Direction: 320°NW
Pressure: 29.93"   Gusts: NA
Location:  41.48°N, 99.76°W
Report Text: KBBW 260653Z AUTO 32019KT 10SM FEW070 03/M04 A2993 RMK AO2 SLP147 T00281039
Loading
Personal Weather Stations






























Interactive Weather Map New forecast layout! Learn more

10-Day Weather Forecast

Advertisements
Track Severe Weather on mobile